Time;durP1;ratioP1;P1;durP2;ratioP2;P2;SDS_P1;SDS_P2;PMS_P1;PMS_P2;Temp;Humidity;BMP_temperature;BMP_pressure;BME280_temperature;BME280_humidity;BME280_pressure;Samples;Min_cycle;Max_cycle;Signal;HPM_P1;HPM_P2
2022/05/15 00:01:33;;;;;;;20.75;6.82;;;;;;;15.14;70.62;101933.84;6435009;23;20048;-70
2022/05/15 00:04:05;;;;;;;22.25;6.68;;;;;;;15.12;70.49;101925.22;6433683;23;20033;-70
2022/05/15 00:06:36;;;;;;;19.88;6.78;;;;;;;15.06;71.25;101931.03;6435464;23;20001;-70
2022/05/15 00:09:07;;;;;;;21.02;6.88;;;;;;;14.99;71.17;101917.53;6433874;23;20008;-70
2022/05/15 00:11:39;;;;;;;18.80;6.22;;;;;;;15.04;71.37;101933.81;6434880;23;20001;-70
2022/05/15 00:14:10;;;;;;;19.92;6.43;;;;;;;15.00;70.75;101924.50;6434934;23;20005;-70
2022/05/15 00:16:42;;;;;;;16.45;6.38;;;;;;;14.99;71.64;101930.72;6434498;23;20473;-70
2022/05/15 00:19:13;;;;;;;18.95;6.95;;;;;;;14.92;72.00;101929.56;6434634;23;20028;-70
2022/05/15 00:21:44;;;;;;;20.02;7.07;;;;;;;15.01;71.10;101912.13;6435264;23;20005;-70
2022/05/15 00:24:16;;;;;;;18.60;6.32;;;;;;;14.91;71.77;101916.53;6433566;23;20448;-70
2022/05/15 00:26:47;;;;;;;19.60;6.65;;;;;;;14.93;71.26;101918.06;6434277;23;20056;-70
2022/05/15 00:29:18;;;;;;;19.58;7.75;;;;;;;14.90;71.25;101909.59;6435547;23;20096;-70
2022/05/15 00:31:50;;;;;;;18.80;6.55;;;;;;;14.92;71.43;101920.81;6435095;23;20012;-70
2022/05/15 00:34:21;;;;;;;21.13;6.75;;;;;;;14.88;71.11;101901.78;6433762;23;20433;-70
2022/05/15 00:36:52;;;;;;;22.88;6.85;;;;;;;14.89;71.02;101913.16;6435308;23;20463;-70
2022/05/15 00:39:23;;;;;;;20.08;6.35;;;;;;;14.81;71.72;101916.47;6433318;23;20044;-70
2022/05/15 00:41:55;;;;;;;16.48;5.70;;;;;;;14.79;71.55;101899.94;6435383;23;20417;-70
2022/05/15 00:44:26;;;;;;;21.30;6.68;;;;;;;14.76;70.97;101911.59;6434310;23;20361;-70
2022/05/15 00:46:57;;;;;;;16.17;5.65;;;;;;;14.76;71.42;101902.84;6434658;23;19997;-70
2022/05/15 00:49:31;;;;;;;18.67;6.82;;;;;;;14.75;71.44;101909.94;6435194;23;20059;-70
2022/05/15 00:52:11;;;;;;;20.80;6.60;;;;;;;14.75;71.73;101912.56;6433454;23;20013;-70
2022/05/15 00:54:52;;;;;;;20.27;6.95;;;;;;;14.75;71.08;101903.81;6431457;23;20175;-70
2022/05/15 00:57:32;;;;;;;17.48;6.50;;;;;;;14.74;72.19;101907.44;6434982;23;20079;-70
2022/05/15 01:00:11;;;;;;;23.33;6.65;;;;;;;14.63;71.63;101903.06;6434536;23;20040;-70
2022/05/15 01:02:53;;;;;;;19.20;6.03;;;;;;;14.58;72.46;101905.25;6434445;23;20009;-70
2022/05/15 01:05:25;;;;;;;18.95;6.25;;;;;;;14.48;72.46;101894.63;6433325;23;20005;-70
2022/05/15 01:07:56;;;;;;;19.42;6.65;;;;;;;14.50;72.33;101903.25;6432653;23;20502;-70
2022/05/15 01:10:28;;;;;;;17.45;5.78;;;;;;;14.55;72.17;101910.81;6432522;23;20298;-69
2022/05/15 01:12:59;;;;;;;24.52;6.50;;;;;;;14.45;72.27;101904.59;6434598;23;20015;-70
2022/05/15 01:15:31;;;;;;;21.92;6.43;;;;;;;14.41;72.82;101905.81;6407454;23;20016;-70
2022/05/15 01:18:04;;;;;;;18.40;6.53;;;;;;;14.32;73.86;101902.16;6435106;23;20333;-70
2022/05/15 01:20:37;;;;;;;19.60;6.18;;;;;;;14.32;73.55;101900.34;6433190;23;20427;-71
2022/05/15 01:23:09;;;;;;;20.13;6.45;;;;;;;14.27;73.42;101913.06;6433044;23;20479;-70
2022/05/15 01:25:40;;;;;;;17.85;6.15;;;;;;;14.31;73.51;101911.84;6433934;23;20344;-70
2022/05/15 01:28:22;;;;;;;19.05;6.68;;;;;;;14.34;74.03;101916.88;6434655;23;20071;-70
2022/05/15 01:30:57;;;;;;;20.95;6.93;;;;;;;14.16;74.79;101915.75;6433325;23;20508;-70
2022/05/15 01:33:28;;;;;;;17.50;6.38;;;;;;;14.19;74.75;101907.59;6434003;23;20024;-70
2022/05/15 01:36:00;;;;;;;22.33;6.82;;;;;;;14.21;74.64;101910.13;6433322;23;20389;-69
2022/05/15 01:38:31;;;;;;;19.27;6.75;;;;;;;14.12;74.95;101920.44;6430834;23;20008;-70
2022/05/15 01:41:03;;;;;;;22.00;6.88;;;;;;;14.14;74.67;101907.16;6407663;23;20028;-70
2022/05/15 01:43:34;;;;;;;19.85;6.65;;;;;;;14.05;75.84;101913.16;6433553;23;20432;-70
2022/05/15 01:46:06;;;;;;;18.10;6.32;;;;;;;14.05;75.55;101916.66;6432900;23;20076;-69
2022/05/15 01:48:38;;;;;;;22.97;7.33;;;;;;;13.99;75.76;101908.44;6434665;23;20016;-70
2022/05/15 01:51:10;;;;;;;16.53;6.67;;;;;;;13.98;75.91;101917.28;6434784;23;20433;-70
2022/05/15 01:53:41;;;;;;;23.95;7.80;;;;;;;13.93;75.26;101914.19;6431638;23;20171;-70
2022/05/15 01:56:13;;;;;;;18.67;6.28;;;;;;;13.87;77.00;101911.09;6434326;23;20012;-70
2022/05/15 01:58:44;;;;;;;17.75;7.07;;;;;;;13.80;77.33;101909.94;6434294;23;20006;-70
2022/05/15 02:01:16;;;;;;;16.27;6.10;;;;;;;13.85;76.17;101909.53;6407270;23;20227;-70
2022/05/15 02:03:47;;;;;;;21.20;6.35;;;;;;;13.78;76.70;101909.19;6433869;23;20005;-70
2022/05/15 02:06:18;;;;;;;19.40;6.45;;;;;;;13.71;77.75;101904.56;6433985;23;20429;-69
2022/05/15 02:08:49;;;;;;;14.93;6.30;;;;;;;13.76;77.02;101897.97;6432329;23;20015;-70
2022/05/15 02:11:22;;;;;;;21.83;7.15;;;;;;;13.67;77.42;101901.34;6433945;23;20059;-70
2022/05/15 02:13:53;;;;;;;21.50;6.40;;;;;;;13.63;78.43;101898.13;6434246;23;20236;-70
2022/05/15 02:16:24;;;;;;;20.10;7.35;;;;;;;13.62;77.29;101899.09;6434250;23;20005;-69
2022/05/15 02:18:56;;;;;;;24.02;7.10;;;;;;;13.78;77.92;101897.84;6435177;23;20268;-70
2022/05/15 02:21:27;;;;;;;18.75;6.35;;;;;;;13.57;79.45;101897.78;6433944;23;20041;-70
2022/05/15 02:23:59;;;;;;;18.80;6.63;;;;;;;13.55;78.78;101895.25;6432709;23;20036;-69
2022/05/15 02:26:30;;;;;;;22.05;6.45;;;;;;;13.50;78.97;101891.34;6434779;23;20357;-69
2022/05/15 02:29:01;;;;;;;19.60;6.72;;;;;;;13.42;79.37;101897.22;6433964;23;20040;-70
2022/05/15 02:31:33;;;;;;;18.70;6.70;;;;;;;13.45;79.85;101898.75;6434247;23;20072;-70
2022/05/15 02:34:04;;;;;;;20.42;7.15;;;;;;;13.46;79.58;101895.19;6434531;23;20082;-70
2022/05/15 02:36:35;;;;;;;16.23;6.07;;;;;;;13.38;80.20;101896.63;6433715;23;20059;-69
2022/05/15 02:39:07;;;;;;;17.67;6.45;;;;;;;13.36;80.38;101895.91;6433379;23;20004;-70
2022/05/15 02:41:38;;;;;;;18.67;6.72;;;;;;;13.35;80.54;101883.72;6407017;23;20040;-69
2022/05/15 02:44:10;;;;;;;20.35;6.05;;;;;;;13.34;80.81;101884.69;6433814;23;20017;-69
2022/05/15 02:46:41;;;;;;;22.73;6.60;;;;;;;13.34;80.45;101887.31;6408143;23;20012;-69
2022/05/15 02:52:03;;;;;;;21.73;6.78;;;;;;;13.20;81.38;101892.81;6434496;23;20071;-69
2022/05/15 02:54:34;;;;;;;20.75;6.65;;;;;;;13.16;81.74;101875.59;6403885;23;20037;-69
2022/05/15 02:57:07;;;;;;;21.27;6.32;;;;;;;13.22;82.08;101880.38;6433889;23;20001;-69
2022/05/15 02:59:39;;;;;;;21.50;5.93;;;;;;;13.15;82.12;101879.19;6434805;23;20005;-69
2022/05/15 03:02:11;;;;;;;21.88;6.90;;;;;;;13.18;82.46;101873.66;6435407;23;20031;-69
2022/05/15 03:04:42;;;;;;;18.17;5.95;;;;;;;13.22;81.86;101872.47;6433512;23;20009;-69
2022/05/15 03:07:14;;;;;;;20.13;6.38;;;;;;;13.12;82.49;101872.34;6433218;23;20047;-69
2022/05/15 03:09:47;;;;;;;18.67;6.35;;;;;;;13.20;82.57;101868.28;6433195;23;20040;-69
2022/05/15 03:12:18;;;;;;;;;;;;;;;13.72;78.11;101875.47;6435019;23;20035;-69
2022/05/15 03:14:53;;;;;;;15.73;5.27;;;;;;;13.19;82.22;101877.16;6434335;23;19963;-69
2022/05/15 03:17:24;;;;;;;21.10;6.45;;;;;;;13.10;83.31;101873.44;6433962;23;20071;-70
2022/05/15 03:19:56;;;;;;;18.80;6.00;;;;;;;13.06;83.20;101872.81;6434448;23;20005;-70
2022/05/15 03:22:27;;;;;;;18.75;6.90;;;;;;;13.06;83.73;101872.81;6433970;23;20009;-70
2022/05/15 03:24:59;;;;;;;20.27;6.47;;;;;;;13.06;83.39;101877.25;6432593;23;20016;-69
2022/05/15 03:27:30;;;;;;;18.02;6.15;;;;;;;13.04;83.64;101879.19;6433925;23;20001;-69
2022/05/15 03:30:03;;;;;;;17.70;6.72;;;;;;;12.97;83.79;101883.25;6434020;23;20032;-70
2022/05/15 03:32:35;;;;;;;;;;;;;;;13.50;79.87;101868.47;6434192;23;20441;-70
2022/05/15 03:35:08;;;;;;;19.10;6.88;;;;;;;12.96;84.05;101873.69;6436168;23;20240;-69
2022/05/15 03:37:40;;;;;;;24.20;6.28;;;;;;;12.94;84.03;101876.44;6436557;23;20302;-70
2022/05/15 03:40:14;;;;;;;22.00;6.60;;;;;;;12.90;85.15;101875.00;6434644;23;20012;-70
2022/05/15 03:42:46;;;;;;;14.73;5.78;;;;;;;12.85;84.87;101866.66;6434936;23;20160;-70
2022/05/15 03:45:17;;;;;;;25.05;7.20;;;;;;;12.80;85.47;101868.78;6436205;23;20385;-69
2022/05/15 03:47:51;;;;;;;19.02;6.88;;;;;;;12.81;85.66;101868.69;6436735;23;20310;-70
2022/05/15 03:50:26;;;;;;;22.38;6.10;;;;;;;12.80;86.18;101871.41;6435388;23;20020;-70
2022/05/15 03:52:58;;;;;;;15.82;6.35;;;;;;;12.72;86.26;101866.75;6434792;23;20001;-70
2022/05/15 03:55:29;;;;;;;18.05;6.00;;;;;;;12.69;85.89;101861.75;6434242;23;20497;-70
2022/05/15 03:58:00;;;;;;;17.13;6.32;;;;;;;12.71;86.57;101872.13;6435796;23;20005;-70
2022/05/15 04:00:34;;;;;;;20.98;6.18;;;;;;;12.70;86.88;101865.22;6434828;23;20651;-70
2022/05/15 04:03:05;;;;;;;19.70;6.90;;;;;;;12.76;86.45;101865.53;6435731;23;20032;-70
2022/05/15 04:05:37;;;;;;;19.75;6.47;;;;;;;12.69;86.70;101863.50;6434253;23;20028;-70
2022/05/15 04:08:08;;;;;;;17.40;7.00;;;;;;;12.64;87.49;101869.97;6434298;23;20013;-70
2022/05/15 04:10:40;;;;;;;18.90;6.60;;;;;;;12.57;87.83;101865.28;6435491;23;20443;-71
2022/05/15 04:13:11;;;;;;;25.23;7.68;;;;;;;12.61;87.02;101872.84;6434699;23;20072;-70
2022/05/15 04:15:42;;;;;;;20.33;6.88;;;;;;;12.63;87.16;101876.19;6434896;23;20009;-70
2022/05/15 04:18:14;;;;;;;27.38;7.22;;;;;;;12.64;87.69;101885.75;6435203;23;20004;-70
2022/05/15 04:20:46;;;;;;;23.50;7.30;;;;;;;12.63;88.34;101880.63;6436018;23;20004;-70
2022/05/15 04:23:17;;;;;;;25.70;6.75;;;;;;;12.61;88.63;101879.88;6434157;23;20001;-70
2022/05/15 04:25:48;;;;;;;27.65;6.72;;;;;;;12.70;88.32;101878.34;6433428;23;20001;-70
2022/05/15 04:28:20;;;;;;;20.33;6.47;;;;;;;12.74;88.26;101875.38;6434224;23;20004;-70
2022/05/15 04:30:51;;;;;;;19.23;7.10;;;;;;;12.75;86.97;101873.56;6436133;23;20009;-70
2022/05/15 04:33:22;;;;;;;19.83;6.85;;;;;;;12.66;88.22;101875.97;6432461;23;20020;-70
2022/05/15 04:35:54;;;;;;;18.10;6.85;;;;;;;12.71;88.60;101872.13;6435335;23;20081;-70
2022/05/15 04:38:25;;;;;;;22.50;7.30;;;;;;;12.70;89.24;101873.94;6434538;23;20016;-70
2022/05/15 04:40:56;;;;;;;20.85;6.53;;;;;;;12.71;88.41;101869.50;6434770;23;20004;-70
2022/05/15 04:43:28;;;;;;;20.42;6.78;;;;;;;12.70;89.05;101870.47;6434482;23;20120;-70
2022/05/15 04:46:01;;;;;;;20.95;7.05;;;;;;;12.76;89.10;101865.53;6434195;23;20059;-70
2022/05/15 04:48:34;;;;;;;23.85;6.72;;;;;;;12.71;89.17;101865.06;6435294;23;20039;-71
2022/05/15 04:51:05;;;;;;;17.47;6.53;;;;;;;12.73;89.19;101875.47;6434820;23;20005;-70
2022/05/15 04:53:37;;;;;;;21.65;7.07;;;;;;;12.74;89.78;101870.09;6432295;23;20062;-70
2022/05/15 04:56:08;;;;;;;21.85;7.07;;;;;;;12.79;88.80;101864.47;6408279;23;20011;-70
2022/05/15 04:58:40;;;;;;;22.20;7.10;;;;;;;12.78;90.04;101866.28;6435103;23;20079;-71
2022/05/15 05:01:11;;;;;;;19.02;6.60;;;;;;;12.84;89.74;101863.19;6435535;23;20020;-70
2022/05/15 05:03:42;;;;;;;20.08;7.03;;;;;;;12.89;89.59;101874.16;6407943;23;20297;-70
2022/05/15 05:06:14;;;;;;;21.75;6.95;;;;;;;12.89;89.58;101870.72;6435231;23;20001;-70
2022/05/15 05:08:45;;;;;;;23.60;7.32;;;;;;;12.97;89.40;101878.00;6434220;23;20106;-70
2022/05/15 05:11:16;;;;;;;26.23;7.93;;;;;;;12.99;89.53;101884.78;6435066;23;20507;-70
2022/05/15 05:13:48;;;;;;;19.17;6.72;;;;;;;13.03;89.75;101882.75;6434607;23;20088;-70
2022/05/15 05:16:20;;;;;;;21.73;7.90;;;;;;;13.11;89.45;101888.28;6433930;23;20008;-71
2022/05/15 05:18:51;;;;;;;21.35;7.50;;;;;;;13.18;90.23;101893.88;6434276;23;20083;-70
2022/05/15 05:21:22;;;;;;;25.60;7.22;;;;;;;13.23;88.69;101889.09;6435358;23;20011;-70
2022/05/15 05:23:54;;;;;;;25.75;8.18;;;;;;;13.29;88.20;101888.63;6432630;23;20047;-70
2022/05/15 05:26:25;;;;;;;20.10;7.13;;;;;;;13.35;88.94;101888.16;6432821;23;20306;-70
2022/05/15 05:28:56;;;;;;;21.77;7.47;;;;;;;13.43;89.02;101882.25;6434881;23;20405;-71
2022/05/15 05:31:28;;;;;;;20.65;7.75;;;;;;;13.49;88.48;101881.78;6434275;23;20281;-71
2022/05/15 05:33:59;;;;;;;19.13;6.78;;;;;;;13.54;88.61;101869.06;6406903;23;20348;-72
2022/05/15 05:36:30;;;;;;;25.40;8.00;;;;;;;13.67;88.10;101868.91;6434318;23;20005;-72
2022/05/15 05:39:02;;;;;;;19.42;7.28;;;;;;;13.73;88.01;101879.78;6433203;23;20005;-71
2022/05/15 05:41:34;;;;;;;22.83;8.15;;;;;;;13.80;88.04;101877.50;6433313;23;20011;-71
2022/05/15 05:44:06;;;;;;;20.05;7.32;;;;;;;13.87;88.12;101884.75;6433973;23;20017;-71
2022/05/15 05:46:37;;;;;;;20.02;7.28;;;;;;;14.00;87.17;101878.47;6434274;23;20036;-71
2022/05/15 05:49:08;;;;;;;21.02;8.25;;;;;;;14.09;87.54;101873.28;6434234;23;20016;-70
2022/05/15 05:51:40;;;;;;;18.58;7.22;;;;;;;14.23;85.40;101872.13;6433616;23;20011;-71
2022/05/15 05:54:11;;;;;;;18.10;7.35;;;;;;;14.35;86.07;101878.97;6431664;23;20008;-70
2022/05/15 05:56:43;;;;;;;17.20;7.28;;;;;;;14.45;85.05;101878.22;6433821;23;20329;-71
2022/05/15 05:59:14;;;;;;;19.67;7.40;;;;;;;14.57;84.95;101875.41;6435159;23;20036;-72
2022/05/15 06:01:45;;;;;;;17.45;7.55;;;;;;;14.70;84.27;101874.34;6434964;23;20122;-71
2022/05/15 06:07:09;;;;;;;18.88;7.05;;;;;;;15.07;82.02;101877.28;6435243;23;20009;-71
2022/05/15 06:09:43;;;;;;;17.48;7.50;;;;;;;15.18;80.86;101879.81;6432887;23;20071;-71
2022/05/15 06:12:18;;;;;;;19.85;7.75;;;;;;;15.33;80.69;101872.34;6409258;23;20005;-71
2022/05/15 06:14:51;;;;;;;19.02;8.40;;;;;;;15.49;81.14;101871.81;6435359;23;20409;-71
2022/05/15 06:17:23;;;;;;;;;;;;;;;15.96;78.06;101872.84;6435224;23;20044;-72
2022/05/15 06:19:56;;;;;;;16.05;6.43;;;;;;;15.82;77.15;101870.63;6435519;23;19912;-71
2022/05/15 06:22:27;;;;;;;22.10;7.68;;;;;;;15.94;75.30;101866.84;6434450;23;20013;-72
2022/05/15 06:24:58;;;;;;;21.58;7.43;;;;;;;16.12;75.80;101871.44;6431741;23;20005;-71
2022/05/15 06:27:30;;;;;;;17.50;7.57;;;;;;;16.28;75.47;101872.50;6434546;23;20523;-72
2022/05/15 06:30:01;;;;;;;18.92;8.07;;;;;;;16.41;75.58;101874.88;6432883;23;20092;-71
2022/05/15 06:32:32;;;;;;;17.67;7.55;;;;;;;16.53;74.03;101870.22;6433912;23;20005;-71
2022/05/15 06:35:05;;;;;;;17.65;8.02;;;;;;;16.60;73.66;101870.50;6434367;23;20036;-70
2022/05/15 06:37:37;;;;;;;19.15;8.18;;;;;;;16.68;71.88;101866.16;6434489;23;20038;-71
2022/05/15 06:40:10;;;;;;;17.52;8.10;;;;;;;16.87;72.31;101870.56;6433255;23;20055;-71
2022/05/15 06:42:42;;;;;;;18.67;8.57;;;;;;;16.97;72.42;101868.72;6433711;23;20024;-71
2022/05/15 06:45:13;;;;;;;19.42;8.48;;;;;;;17.03;71.26;101869.91;6434171;23;20009;-71
2022/05/15 06:47:45;;;;;;;16.00;7.75;;;;;;;17.19;70.64;101866.63;6433391;23;20005;-71
2022/05/15 06:50:17;;;;;;;21.63;7.60;;;;;;;17.38;71.39;101863.03;6430212;23;20825;-71
2022/05/15 06:52:48;;;;;;;15.57;8.18;;;;;;;17.41;68.26;101860.91;6429800;23;20007;-71
2022/05/15 06:55:21;;;;;;;19.85;8.43;;;;;;;17.64;67.84;101871.88;6429040;23;20028;-71
2022/05/15 06:57:53;;;;;;;16.90;8.60;;;;;;;17.75;67.88;101866.41;6431272;23;20103;-71
2022/05/15 07:00:27;;;;;;;17.45;7.63;;;;;;;17.83;65.54;101870.94;6403631;23;20012;-71
2022/05/15 07:02:59;;;;;;;16.52;7.55;;;;;;;18.03;67.40;101868.09;6431709;23;20078;-71
2022/05/15 07:05:31;;;;;;;16.65;7.15;;;;;;;18.08;65.13;101873.81;6405163;23;20087;-71
2022/05/15 07:08:02;;;;;;;14.67;7.20;;;;;;;18.22;64.29;101868.78;6433100;23;20004;-71
2022/05/15 07:10:34;;;;;;;15.25;7.22;;;;;;;18.33;62.77;101872.97;6410394;23;20001;-71
2022/05/15 07:13:06;;;;;;;14.38;7.78;;;;;;;18.46;63.10;101872.56;6435209;23;20011;-72
2022/05/15 07:15:38;;;;;;;14.82;7.40;;;;;;;18.67;63.52;101880.13;6436422;23;20432;-72
2022/05/15 07:18:09;;;;;;;16.35;7.00;;;;;;;18.80;62.26;101885.06;6437104;23;20005;-71
2022/05/15 07:20:40;;;;;;;19.30;7.88;;;;;;;18.90;60.68;101885.75;6436650;23;20008;-72
2022/05/15 07:23:12;;;;;;;16.67;7.00;;;;;;;19.06;60.35;101874.38;6434202;23;20012;-71
2022/05/15 07:25:43;;;;;;;15.55;6.85;;;;;;;19.21;60.85;101880.75;6436689;23;20008;-72
2022/05/15 07:28:16;;;;;;;15.65;7.20;;;;;;;19.41;59.91;101874.13;6436127;23;20084;-71
2022/05/15 07:30:49;;;;;;;15.80;7.38;;;;;;;19.64;59.26;101879.69;6435504;23;20005;-71
2022/05/15 07:33:27;;;;;;;13.82;6.45;;;;;;;19.84;59.18;101874.88;6436743;23;20005;-71
2022/05/15 07:35:58;;;;;;;11.98;7.00;;;;;;;19.91;56.30;101875.88;6408042;23;20441;-71
2022/05/15 07:38:29;;;;;;;15.45;7.57;;;;;;;20.05;57.09;101874.38;6435044;23;20012;-71
2022/05/15 07:41:00;;;;;;;15.68;6.80;;;;;;;20.32;55.46;101872.38;6434107;23;20084;-71
2022/05/15 07:43:32;;;;;;;15.10;6.67;;;;;;;20.40;54.58;101864.34;6435474;23;20024;-72
2022/05/15 07:46:03;;;;;;;16.30;6.82;;;;;;;20.67;53.29;101865.81;6433895;23;20088;-72
2022/05/15 07:48:35;;;;;;;15.02;6.43;;;;;;;20.77;52.55;101866.44;6434933;23;20240;-72
2022/05/15 07:51:06;;;;;;;13.37;6.23;;;;;;;20.99;52.89;101864.88;6435406;23;20008;-72
2022/05/15 07:53:39;;;;;;;13.97;6.93;;;;;;;21.17;52.97;101867.25;6434133;23;20000;-72
2022/05/15 07:56:12;;;;;;;16.50;7.53;;;;;;;21.27;50.14;101872.38;6435935;23;20048;-72
2022/05/15 07:58:43;;;;;;;15.23;6.60;;;;;;;21.38;50.73;101866.66;6436371;23;20342;-72
2022/05/15 08:01:15;;;;;;;13.50;6.90;;;;;;;21.55;49.16;101865.53;6435258;23;20005;-72
2022/05/15 08:03:46;;;;;;;20.70;7.30;;;;;;;21.71;48.90;101866.47;6435767;23;20337;-72
2022/05/15 08:09:08;;;;;;;17.85;7.95;;;;;;;22.09;47.93;101862.78;6434430;23;20044;-72
2022/05/15 08:11:40;;;;;;;15.67;6.77;;;;;;;22.23;47.22;101860.34;6435230;23;20029;-72
2022/05/15 08:14:12;;;;;;;14.57;6.57;;;;;;;22.19;46.84;101853.69;6434915;23;20009;-72
2022/05/15 08:16:43;;;;;;;16.03;7.07;;;;;;;22.37;47.06;101854.19;6435404;23;20098;-72
2022/05/15 08:24:55;;;;;;;15.10;6.75;;;;;;;22.69;44.75;101836.13;6434171;23;20017;-72
2022/05/15 08:27:26;;;;;;;14.43;7.37;;;;;;;22.74;44.53;101831.88;6432158;23;20080;-71
2022/05/15 08:29:57;;;;;;;11.90;6.20;;;;;;;22.90;43.40;101838.03;6403044;23;20009;-71
2022/05/15 08:32:29;;;;;;;16.97;7.10;;;;;;;22.73;43.43;101832.91;6434627;23;20011;-71
2022/05/15 08:35:01;;;;;;;11.93;5.90;;;;;;;22.90;42.78;101836.19;6435026;23;20032;-71
2022/05/15 08:37:32;;;;;;;10.20;6.07;;;;;;;23.13;43.10;101827.22;6433899;23;20028;-71
2022/05/15 08:40:04;;;;;;;15.90;6.53;;;;;;;23.29;41.58;101817.09;6425213;23;20012;-71
2022/05/15 08:42:50;;;;;;;14.67;6.37;;;;;;;23.50;42.25;101818.16;6432720;23;20005;-71
2022/05/15 08:45:29;;;;;;;12.88;6.80;;;;;;;23.39;42.19;101816.81;6433350;23;20032;-72
2022/05/15 08:48:08;;;;;;;15.05;5.90;;;;;;;23.44;41.32;101816.22;6435072;23;20015;-71
2022/05/15 08:50:48;;;;;;;10.52;5.65;;;;;;;23.74;40.68;101814.25;6434345;23;20001;-71
2022/05/15 08:53:31;;;;;;;15.70;6.50;;;;;;;23.85;39.60;101810.22;6435365;23;20349;-71
2022/05/15 08:56:08;;;;;;;13.73;5.78;;;;;;;23.87;39.39;101811.69;6434434;23;20084;-71
2022/05/15 08:58:45;;;;;;;14.63;5.88;;;;;;;23.89;38.95;101812.31;6434436;23;20096;-71
2022/05/15 09:01:21;;;;;;;12.32;6.70;;;;;;;23.93;37.36;101810.09;6433431;23;20009;-72
2022/05/15 09:03:54;;;;;;;11.88;6.30;;;;;;;23.92;38.93;101809.25;6407863;23;20330;-72
2022/05/15 09:06:41;;;;;;;;;;;;;;;24.60;37.47;101809.47;6435320;23;20009;-72
2022/05/15 09:09:22;;;;;;;14.10;5.90;;;;;;;24.30;37.38;101811.56;6434776;23;19912;-72
2022/05/15 09:12:07;;;;;;;12.32;5.47;;;;;;;24.17;36.52;101803.44;6406355;23;20421;-71
2022/05/15 09:14:54;;;;;;;12.13;4.95;;;;;;;24.37;36.25;101811.59;6431515;23;20076;-71
2022/05/15 09:17:51;;;;;;;11.45;5.00;;;;;;;24.34;34.29;101814.66;6432301;23;20314;-71
2022/05/15 09:20:25;;;;;;;9.57;4.40;;;;;;;24.49;34.82;101815.41;6428998;23;20063;-71
2022/05/15 09:23:19;;;;;;;13.07;4.68;;;;;;;24.90;34.54;101804.66;6433705;23;20008;-71
2022/05/15 09:25:54;;;;;;;12.90;4.80;;;;;;;24.76;35.41;101805.63;6432358;23;20001;-71
2022/05/15 09:28:28;;;;;;;9.23;4.97;;;;;;;24.51;34.33;101816.03;6432567;23;20029;-71
2022/05/15 09:31:04;;;;;;;15.63;5.28;;;;;;;24.86;35.60;101798.03;6430010;23;20349;-71
2022/05/15 09:33:46;;;;;;;12.43;4.82;;;;;;;24.97;34.78;101791.28;6432164;23;20017;-71
2022/05/15 09:36:27;;;;;;;12.50;4.72;;;;;;;25.29;34.26;101795.06;6431151;23;20001;-71
2022/05/15 09:39:22;;;;;;;9.75;4.07;;;;;;;25.30;34.05;101793.19;6430311;23;20005;-71
2022/05/15 09:45:25;;;;;;;8.73;4.03;;;;;;;25.67;32.90;101791.78;6430409;23;20020;-72
2022/05/15 09:47:57;;;;;;;11.48;3.83;;;;;;;25.32;32.17;101788.47;6432857;23;20009;-72
2022/05/15 09:50:48;;;;;;;10.90;4.03;;;;;;;25.70;32.01;101780.63;6432367;23;20447;-72
2022/05/15 09:53:30;;;;;;;10.30;3.80;;;;;;;25.70;31.45;101778.78;6432421;23;20016;-72
2022/05/15 09:56:18;;;;;;;10.43;3.60;;;;;;;25.76;32.24;101771.75;6405834;23;20067;-72
2022/05/15 09:58:58;;;;;;;9.55;3.10;;;;;;;25.83;30.50;101777.13;6433737;23;20012;-70
2022/05/15 10:01:30;;;;;;;7.90;3.72;;;;;;;25.77;29.73;101777.94;6432913;23;20009;-71
2022/05/15 10:04:05;;;;;;;9.93;3.90;;;;;;;25.91;30.09;101780.44;6432004;23;20047;-70
2022/05/15 10:06:55;;;;;;;11.50;4.18;;;;;;;25.81;29.83;101784.59;6433241;23;19997;-70
2022/05/15 10:09:33;;;;;;;13.15;3.70;;;;;;;25.76;29.31;101782.50;6432759;23;20043;-71
2022/05/15 10:12:21;;;;;;;11.07;3.60;;;;;;;26.15;30.13;101778.94;6433871;23;20029;-71
2022/05/15 10:14:56;;;;;;;11.45;3.60;;;;;;;25.90;28.08;101786.81;6432928;23;20451;-70
2022/05/15 10:17:28;;;;;;;7.03;3.03;;;;;;;26.08;28.51;101777.31;6433964;23;20059;-71
2022/05/15 10:20:23;;;;;;;6.80;2.70;;;;;;;26.31;28.20;101774.94;6434172;23;20009;-71
2022/05/15 10:23:10;;;;;;;7.22;3.10;;;;;;;26.29;27.91;101774.34;6408071;23;20005;-71
2022/05/15 10:26:07;;;;;;;8.65;3.20;;;;;;;26.55;27.65;101772.63;6433446;23;20617;-71
2022/05/15 10:28:47;;;;;;;8.77;3.20;;;;;;;26.51;28.18;101766.03;6405686;23;20084;-70
2022/05/15 10:31:38;;;;;;;7.35;2.90;;;;;;;26.50;27.95;101770.56;6431929;23;20093;-71
2022/05/15 10:34:18;;;;;;;8.20;2.97;;;;;;;26.51;26.87;101758.78;6431054;23;20009;-70
2022/05/15 10:37:01;;;;;;;9.48;3.35;;;;;;;26.31;26.58;101758.84;6431985;23;20401;-70
2022/05/15 10:39:44;;;;;;;8.73;3.45;;;;;;;26.58;26.88;101742.63;6434524;23;20072;-71
2022/05/15 10:42:25;;;;;;;9.63;3.50;;;;;;;26.48;27.03;101753.00;6436206;23;20015;-71
2022/05/15 10:45:19;;;;;;;7.85;2.90;;;;;;;26.33;27.09;101746.03;6402744;23;20500;-70
2022/05/15 10:48:04;;;;;;;6.78;2.92;;;;;;;26.13;27.45;101745.25;6433380;23;20039;-70
2022/05/15 10:51:03;;;;;;;8.57;3.60;;;;;;;26.31;27.78;101741.91;6436012;23;20354;-70
2022/05/15 10:57:22;;;;;;;7.75;3.38;;;;;;;26.59;27.78;101738.91;6435879;23;20433;-69
2022/05/15 11:00:03;;;;;;;8.13;3.42;;;;;;;26.28;28.25;101740.44;6406562;23;20079;-70
2022/05/15 11:02:52;;;;;;;10.68;3.60;;;;;;;26.54;27.79;101733.34;6407670;23;20001;-70
2022/05/15 11:05:27;;;;;;;9.23;3.35;;;;;;;26.38;27.92;101735.47;6409136;23;20013;-69
2022/05/15 11:08:33;;;;;;;9.25;3.03;;;;;;;26.88;28.25;101738.31;6436920;23;20005;-70
2022/05/15 11:11:34;;;;;;;8.15;3.03;;;;;;;27.14;26.60;101736.53;6436101;23;20032;-70
2022/05/15 11:14:42;;;;;;;9.38;3.13;;;;;;;27.22;27.52;101732.75;6434922;23;20008;-70
2022/05/15 11:17:19;;;;;;;9.38;3.10;;;;;;;26.95;26.77;101732.09;6436111;23;20017;-71
2022/05/15 11:19:53;;;;;;;11.18;3.78;;;;;;;27.13;27.50;101716.88;6435545;23;20086;-71
2022/05/15 11:22:37;;;;;;;8.02;2.33;;;;;;;27.16;27.41;101729.03;6435087;23;20429;-71
2022/05/15 11:25:21;;;;;;;8.35;3.17;;;;;;;27.33;26.75;101722.09;6435159;23;20013;-70
2022/05/15 11:28:08;;;;;;;8.75;3.10;;;;;;;27.37;27.06;101701.75;6436550;23;20008;-71
2022/05/15 11:30:44;;;;;;;9.80;3.20;;;;;;;27.13;25.52;101703.44;6433596;23;20001;-71
2022/05/15 11:33:32;;;;;;;7.72;2.90;;;;;;;27.33;25.56;101697.88;6435399;23;20004;-71
2022/05/15 11:36:12;;;;;;;9.32;2.92;;;;;;;27.09;25.28;101696.81;6435268;23;20009;-71
2022/05/15 11:38:58;;;;;;;8.40;2.50;;;;;;;27.20;25.55;101691.75;6409554;23;20013;-71
2022/05/15 11:41:35;;;;;;;9.93;3.05;;;;;;;27.36;25.39;101689.34;6436137;23;20008;-70
2022/05/15 11:44:11;;;;;;;10.00;2.95;;;;;;;27.70;25.16;101684.47;6431337;23;20017;-71
2022/05/15 11:46:45;;;;;;;7.50;2.53;;;;;;;27.60;23.70;101681.47;6433061;23;20080;-71
2022/05/15 11:49:38;;;;;;;6.07;2.50;;;;;;;27.72;24.38;101668.91;6409796;23;20016;-71
2022/05/15 11:52:11;;;;;;;7.72;2.70;;;;;;;27.58;24.05;101672.81;6433719;23;20091;-70
2022/05/15 11:54:45;;;;;;;6.45;2.75;;;;;;;27.52;24.64;101685.28;6426131;23;20437;-70
2022/05/15 11:57:44;;;;;;;5.90;2.22;;;;;;;27.73;23.85;101669.72;6435223;23;20005;-70
2022/05/15 12:00:24;;;;;;;5.30;2.17;;;;;;;27.71;23.01;101667.25;6433838;23;20005;-71
2022/05/15 12:02:58;;;;;;;7.90;2.47;;;;;;;27.69;23.65;101663.97;6434724;23;20071;-71
2022/05/15 12:05:38;;;;;;;6.45;2.30;;;;;;;28.01;24.43;101663.84;6434645;23;20095;-71
2022/05/15 12:08:18;;;;;;;6.93;2.63;;;;;;;28.00;24.69;101663.03;6434193;23;20005;-71
2022/05/15 12:10:51;;;;;;;5.88;2.10;;;;;;;27.86;24.12;101664.22;6434145;23;20012;-70
2022/05/15 12:13:39;;;;;;;11.93;2.80;;;;;;;28.14;24.19;101661.78;6435316;23;20332;-71
2022/05/15 12:16:28;;;;;;;5.63;2.70;;;;;;;28.46;24.24;101666.19;6433647;23;20005;-71